UTA733 UUWW-ULAM
Flight info
| Callsign | UTA733 |
|---|---|
| Flight time | N/A |
| Altitude | 33000 |
| Route | RILPO/K0787F350 T753 NULGA |
| Aircraft | B733/M-SDE2E3FHIRW/S |
Departure
| Time | 2026-05-04 17:23 |
|---|---|
| Airport | Vnukovo International Airport (UUWW) |
Arrival
| Time | N/A |
|---|---|
| Airport | Naryan Mar Airport (ULAM) |
| Time | Latitude | Longitude | Altitude | Speed | Heading |
|---|---|---|---|---|---|
| 2026-05-04 17:10 | 55.60019 | 37.28000 | 688 ft | 0 kts | 19° |
| 2026-05-04 17:17 | 55.60065 | 37.28031 | 689 ft | 4 kts | 33° |
| 2026-05-04 17:18 | 55.60075 | 37.28089 | 689 ft | 6 kts | 94° |
| 2026-05-04 17:18 | 55.60081 | 37.28294 | 688 ft | 10 kts | 84° |
| 2026-05-04 17:19 | 55.60146 | 37.28527 | 689 ft | 11 kts | 45° |
| 2026-05-04 17:19 | 55.60193 | 37.28732 | 689 ft | 10 kts | 138° |
| 2026-05-04 17:20 | 55.60080 | 37.28878 | 689 ft | 10 kts | 166° |
| 2026-05-04 17:20 | 55.59935 | 37.28941 | 689 ft | 10 kts | 166° |
| 2026-05-04 17:20 | 55.59860 | 37.28973 | 689 ft | 11 kts | 166° |
| 2026-05-04 17:21 | 55.59777 | 37.28910 | 689 ft | 0 kts | 248° |
| 2026-05-04 17:22 | 55.59777 | 37.28909 | 689 ft | 0 kts | 248° |
| 2026-05-04 17:22 | 55.59722 | 37.28664 | 689 ft | 49 kts | 248° |
| 2026-05-04 17:23 | 55.58767 | 37.24397 | 807 ft | 174 kts | 249° |
| 2026-05-04 17:23 | 55.58323 | 37.22374 | 1265 ft | 177 kts | 242° |
| 2026-05-04 17:23 | 55.56694 | 37.18972 | 1979 ft | 196 kts | 234° |
| 2026-05-04 17:24 | 55.55854 | 37.16937 | 2220 ft | 213 kts | 236° |
| 2026-05-04 17:24 | 55.54926 | 37.09431 | 3974 ft | 215 kts | 270° |
| 2026-05-04 17:25 | 55.54982 | 37.06788 | 4486 ft | 221 kts | 272° |
| 2026-05-04 17:25 | 55.56691 | 37.02551 | 5572 ft | 238 kts | 342° |
| 2026-05-04 17:26 | 55.60093 | 37.02496 | 6545 ft | 259 kts | 359° |
| 2026-05-04 17:26 | 55.65753 | 37.02301 | 8219 ft | 274 kts | 335° |
| 2026-05-04 17:27 | 55.69223 | 36.99327 | 9488 ft | 280 kts | 332° |
| 2026-05-04 17:27 | 55.72772 | 36.96502 | 10893 ft | 284 kts | 333° |
| 2026-05-04 17:28 | 55.76443 | 36.93742 | 12100 ft | 292 kts | 336° |
| 2026-05-04 17:29 | 55.81866 | 36.88944 | 13945 ft | 296 kts | 309° |
| 2026-05-04 17:29 | 55.83336 | 36.78400 | 15784 ft | 301 kts | 279° |
| 2026-05-04 17:30 | 55.84181 | 36.67130 | 17426 ft | 310 kts | 278° |
| 2026-05-04 17:31 | 55.85025 | 36.59584 | 18332 ft | 320 kts | 287° |
| 2026-05-04 17:31 | 55.86960 | 36.47638 | 19454 ft | 343 kts | 302° |
| 2026-05-04 17:32 | 55.90787 | 36.42614 | 20307 ft | 360 kts | 345° |
| 2026-05-04 17:33 | 55.98082 | 36.45937 | 21919 ft | 375 kts | 24° |
| 2026-05-04 17:33 | 56.00435 | 36.47768 | 22435 ft | 373 kts | 16° |
| 2026-05-04 17:34 | 56.08147 | 36.50920 | 23515 ft | 384 kts | 6° |
| 2026-05-04 17:34 | 56.10713 | 36.52308 | 23920 ft | 393 kts | 24° |
| 2026-05-04 17:35 | 56.18064 | 36.58804 | 25176 ft | 400 kts | 22° |
| 2026-05-04 17:35 | 56.22871 | 36.64167 | 25774 ft | 417 kts | 47° |
| 2026-05-04 17:35 | 56.24450 | 36.68525 | 26454 ft | 415 kts | 66° |
| 2026-05-04 17:36 | 56.25227 | 36.73486 | 26811 ft | 420 kts | 83° |
| 2026-05-04 17:36 | 56.25282 | 36.78781 | 26991 ft | 427 kts | 96° |
| 2026-05-04 17:36 | 56.24763 | 36.84088 | 27429 ft | 427 kts | 105° |
| 2026-05-04 17:36 | 56.24115 | 36.89226 | 28173 ft | 419 kts | 98° |
| 2026-05-04 17:37 | 56.23880 | 36.94433 | 28358 ft | 426 kts | 90° |
| 2026-05-04 17:37 | 56.24164 | 37.05273 | 28419 ft | 446 kts | 85° |
| 2026-05-04 17:37 | 56.24417 | 37.10898 | 28437 ft | 457 kts | 84° |
| 2026-05-04 17:38 | 56.24685 | 37.16684 | 28566 ft | 465 kts | 84° |
| 2026-05-04 17:38 | 56.24952 | 37.22485 | 28935 ft | 467 kts | 84° |
| 2026-05-04 17:38 | 56.25380 | 37.28241 | 29493 ft | 462 kts | 72° |
| 2026-05-04 17:38 | 56.26713 | 37.33377 | 30038 ft | 454 kts | 51° |
| 2026-05-04 17:39 | 56.31723 | 37.39497 | 30816 ft | 436 kts | 7° |
| 2026-05-04 17:39 | 56.34708 | 37.39819 | 31166 ft | 429 kts | 355° |
| 2026-05-04 17:39 | 56.37686 | 37.40217 | 31521 ft | 434 kts | 7° |
| 2026-05-04 17:40 | 56.40535 | 37.41922 | 31923 ft | 440 kts | 26° |
| 2026-05-04 17:40 | 56.42936 | 37.45393 | 32345 ft | 444 kts | 46° |
| 2026-05-04 17:40 | 56.44914 | 37.49609 | 32719 ft | 445 kts | 46° |
| 2026-05-04 17:40 | 56.46976 | 37.53850 | 32862 ft | 445 kts | 44° |
| 2026-05-04 17:41 | 56.51179 | 37.61809 | 32841 ft | 438 kts | 42° |
| 2026-05-04 17:41 | 56.55437 | 37.69688 | 32818 ft | 438 kts | 43° |
| 2026-05-04 17:42 | 56.59707 | 37.77611 | 32837 ft | 439 kts | 43° |
| 2026-05-04 17:42 | 56.64000 | 37.85517 | 32836 ft | 438 kts | 41° |
| 2026-05-04 17:43 | 56.68365 | 37.93241 | 32831 ft | 438 kts | 41° |
| 2026-05-04 17:43 | 56.72697 | 38.00950 | 32833 ft | 438 kts | 41° |
| 2026-05-04 17:44 | 56.76875 | 38.08421 | 32830 ft | 440 kts | 41° |
| 2026-05-04 17:44 | 56.81232 | 38.16238 | 32831 ft | 439 kts | 41° |
| 2026-05-04 17:45 | 56.85603 | 38.24107 | 32826 ft | 440 kts | 41° |
| 2026-05-04 17:45 | 56.90092 | 38.31602 | 32823 ft | 438 kts | 37° |
| 2026-05-04 17:46 | 56.94754 | 38.38824 | 32819 ft | 438 kts | 37° |
| 2026-05-04 17:46 | 56.99356 | 38.46034 | 32835 ft | 438 kts | 37° |
| 2026-05-04 17:47 | 57.03983 | 38.53315 | 32831 ft | 438 kts | 37° |
| 2026-05-04 17:47 | 57.08575 | 38.60570 | 32837 ft | 438 kts | 37° |
| 2026-05-04 17:48 | 57.13211 | 38.67905 | 32810 ft | 438 kts | 37° |
| 2026-05-04 17:48 | 57.17845 | 38.75278 | 32837 ft | 440 kts | 37° |
| 2026-05-04 17:49 | 57.22474 | 38.82668 | 32823 ft | 440 kts | 37° |
| 2026-05-04 17:49 | 57.27129 | 38.90123 | 32822 ft | 441 kts | 37° |
| 2026-05-04 17:50 | 57.31764 | 38.97573 | 32810 ft | 441 kts | 37° |
| 2026-05-04 17:50 | 57.36373 | 39.05006 | 32819 ft | 440 kts | 37° |
| 2026-05-04 17:51 | 57.40972 | 39.12448 | 32817 ft | 442 kts | 37° |
| 2026-05-04 17:51 | 57.45594 | 39.19954 | 32816 ft | 440 kts | 37° |
| 2026-05-04 17:52 | 57.50178 | 39.27433 | 32821 ft | 441 kts | 37° |
| 2026-05-04 17:52 | 57.54758 | 39.34915 | 32813 ft | 440 kts | 37° |
| 2026-05-04 17:53 | 57.59358 | 39.42434 | 32807 ft | 441 kts | 37° |
| 2026-05-04 17:53 | 57.63958 | 39.49974 | 32811 ft | 441 kts | 37° |
| 2026-05-04 17:54 | 57.68552 | 39.57533 | 32805 ft | 440 kts | 37° |
| 2026-05-04 17:54 | 57.72343 | 39.63789 | 32806 ft | 441 kts | 37° |